createdAt,value
2018-02-15T00:00:54.860Z,65.63
2018-02-15T00:01:54.863Z,65.92
2018-02-15T00:02:54.858Z,65.74
2018-02-15T00:03:54.888Z,65.82
2018-02-15T00:04:54.899Z,65.89
2018-02-15T00:05:54.875Z,65.9
2018-02-15T00:06:54.872Z,66.05
2018-02-15T00:07:54.870Z,66.17
2018-02-15T00:08:54.916Z,66.08
2018-02-15T00:09:54.908Z,66.21
2018-02-15T00:10:54.873Z,66.07
2018-02-15T00:11:54.916Z,66.18
2018-02-15T00:12:54.883Z,66.06
2018-02-15T00:13:54.882Z,66.03
2018-02-15T00:14:54.880Z,66.32
2018-02-15T00:15:54.899Z,66.18
2018-02-15T00:16:54.897Z,66.27
2018-02-15T00:17:54.896Z,66.4
2018-02-15T00:18:54.903Z,66.24
2018-02-15T00:19:55.267Z,66.41
2018-02-15T00:20:54.907Z,66.16
2018-02-15T00:21:54.913Z,66.07
2018-02-15T00:22:54.904Z,66.27
2018-02-15T00:23:54.910Z,66.14
2018-02-15T00:24:55.045Z,66.07
2018-02-15T00:25:55.033Z,66.1
2018-02-15T00:26:54.935Z,65.88
2018-02-15T00:27:54.934Z,66.34
2018-02-15T00:28:54.934Z,66.28
2018-02-15T00:29:54.968Z,66.2
2018-02-15T00:30:54.961Z,66.07
2018-02-15T00:31:54.959Z,66.39
2018-02-15T00:32:54.948Z,66.22
2018-02-15T00:33:54.958Z,66.36
2018-02-15T00:34:54.983Z,66.05
2018-02-15T00:35:54.966Z,66.31
2018-02-15T00:36:54.976Z,66.42
2018-02-15T00:37:54.950Z,66.47
2018-02-15T00:38:54.975Z,66.45
2018-02-15T00:39:54.976Z,66.49
2018-02-15T00:40:54.989Z,66.39
2018-02-15T00:41:54.982Z,66.57
2018-02-15T00:42:54.978Z,66.65
2018-02-15T00:43:54.987Z,66.68
2018-02-15T00:44:55.011Z,66.61
2018-02-15T00:45:54.989Z,66.45
2018-02-15T00:46:54.989Z,66.55
2018-02-15T00:47:55.006Z,66.38
2018-02-15T00:48:55.001Z,66.31
2018-02-15T00:49:55.030Z,66.21
2018-02-15T00:50:55.015Z,66.12
2018-02-15T00:51:55.077Z,66.05
2018-02-15T00:52:55.011Z,66.12
2018-02-15T00:53:55.039Z,66.09
2018-02-15T00:54:55.032Z,66.21
2018-02-15T00:55:55.030Z,66
2018-02-15T00:56:55.053Z,66.17
2018-02-15T00:57:55.048Z,66.2
2018-02-15T00:58:55.048Z,66.14
2018-02-15T00:59:55.044Z,66.18
2018-02-15T01:00:55.042Z,66.27
2018-02-15T01:01:55.050Z,66.2
2018-02-15T01:02:55.097Z,66.29
2018-02-15T01:03:55.167Z,66.18
2018-02-15T01:04:55.062Z,66.24
2018-02-15T01:05:55.095Z,66.14
2018-02-15T01:06:55.068Z,66.32
2018-02-15T01:07:55.071Z,66.28
2018-02-15T01:08:55.065Z,66.26
2018-02-15T01:09:55.086Z,66.11
2018-02-15T01:10:55.074Z,66.11
2018-02-15T01:11:55.072Z,66.05
2018-02-15T01:12:55.081Z,66.23
2018-02-15T01:13:55.095Z,66.24
2018-02-15T01:14:55.328Z,66.41
2018-02-15T01:15:55.145Z,66.24
2018-02-15T01:16:55.089Z,66.36
2018-02-15T01:17:55.099Z,66.34
2018-02-15T01:18:55.103Z,66.21
2018-02-15T01:19:55.165Z,66.44
2018-02-15T01:20:55.124Z,66.29
2018-02-15T01:21:55.118Z,66.24
2018-02-15T01:22:55.126Z,66.47
2018-02-15T01:23:55.138Z,66.48
2018-02-15T01:24:55.140Z,66.52
2018-02-15T01:25:55.404Z,66.59
2018-02-15T01:26:55.136Z,66.58
2018-02-15T01:27:55.141Z,66.62
2018-02-15T01:28:55.151Z,66.58
2018-02-15T01:29:55.160Z,66.6
2018-02-15T01:30:55.169Z,66.87
2018-02-15T01:31:55.190Z,66.59
2018-02-15T01:32:55.172Z,66.53
2018-02-15T01:33:55.151Z,66.52
2018-02-15T01:34:55.160Z,66.34
2018-02-15T01:35:55.160Z,66.29
2018-02-15T01:36:55.331Z,66.24
2018-02-15T01:37:55.196Z,66.31
2018-02-15T01:38:55.172Z,66.15
2018-02-15T01:39:55.167Z,66.16
2018-02-15T01:40:55.178Z,66.34
2018-02-15T01:41:55.214Z,66.23
2018-02-15T01:42:55.204Z,66.26
2018-02-15T01:43:55.187Z,66.46
2018-02-15T01:44:55.186Z,66.12
2018-02-15T01:45:55.199Z,66.22
2018-02-15T01:46:55.183Z,66.05
2018-02-15T01:47:55.831Z,66.28
2018-02-15T01:48:55.193Z,66.09
2018-02-15T01:49:55.190Z,66.06
2018-02-15T01:50:55.187Z,65.86
2018-02-15T01:51:55.193Z,65.91
2018-02-15T01:52:55.198Z,65.78
2018-02-15T01:53:55.228Z,65.89
2018-02-15T01:54:55.212Z,65.93
2018-02-15T01:55:55.220Z,65.78
2018-02-15T01:56:55.208Z,66.11
2018-02-15T01:57:55.235Z,66.11
2018-02-15T01:58:55.247Z,66.05
2018-02-15T01:59:55.220Z,65.87
2018-02-15T02:00:55.228Z,65.87
2018-02-15T02:01:55.234Z,66.09
2018-02-15T02:02:55.236Z,66.01
2018-02-15T02:03:55.243Z,65.85
2018-02-15T02:04:55.243Z,65.9
2018-02-15T02:05:55.302Z,65.71
2018-02-15T02:06:55.243Z,65.51
2018-02-15T02:07:55.254Z,65.51
2018-02-15T02:08:55.248Z,65.63
2018-02-15T02:09:55.263Z,65.48
2018-02-15T02:10:55.298Z,65.55
2018-02-15T02:11:55.304Z,65.48
2018-02-15T02:12:55.274Z,65.49
2018-02-15T02:13:55.285Z,65.62
2018-02-15T02:14:55.274Z,65.44
2018-02-15T02:15:55.302Z,65.52
2018-02-15T02:16:55.292Z,65.1
2018-02-15T02:17:55.281Z,65.25
2018-02-15T02:18:55.276Z,65.36
2018-02-15T02:19:55.305Z,65.19
2018-02-15T02:20:55.309Z,65.31
2018-02-15T02:21:55.305Z,65.13
2018-02-15T02:22:55.302Z,64.91
2018-02-15T02:23:55.308Z,65.21
2018-02-15T02:24:55.316Z,65.26
2018-02-15T02:25:55.318Z,65.42
2018-02-15T02:26:55.329Z,65.17
2018-02-15T02:27:55.305Z,65.15
2018-02-15T02:28:55.310Z,65.12
2018-02-15T02:29:55.320Z,64.82
2018-02-15T02:30:55.458Z,64.85
2018-02-15T02:31:55.342Z,65.05
2018-02-15T02:32:55.320Z,64.81
2018-02-15T02:33:55.359Z,64.88
2018-02-15T02:34:55.348Z,65.05
2018-02-15T02:35:55.371Z,65.05
2018-02-15T02:36:55.364Z,64.98
2018-02-15T02:37:55.374Z,64.58
2018-02-15T02:38:55.348Z,64.48
2018-02-15T02:39:55.354Z,64.64
2018-02-15T02:40:55.377Z,64.73
2018-02-15T02:41:55.377Z,64.68
2018-02-15T02:42:55.389Z,64.63
2018-02-15T02:43:55.380Z,64.37
2018-02-15T02:44:55.369Z,64.18
2018-02-15T02:45:55.384Z,64.14
2018-02-15T02:46:55.378Z,64.21
2018-02-15T02:47:55.423Z,64.09
2018-02-15T02:48:55.410Z,64.07
2018-02-15T02:49:55.386Z,64.09
2018-02-15T02:50:55.387Z,64.21
2018-02-15T02:51:55.396Z,64.34
2018-02-15T02:52:55.433Z,64.25
2018-02-15T02:53:55.427Z,64.34
2018-02-15T02:54:55.416Z,64.32
2018-02-15T02:55:55.409Z,64.17
2018-02-15T02:56:55.410Z,64.16
2018-02-15T02:57:55.436Z,63.91
2018-02-15T02:58:55.436Z,63.98
2018-02-15T02:59:55.416Z,64.17
2018-02-15T03:00:55.446Z,63.91
2018-02-15T03:01:55.458Z,63.86
2018-02-15T03:02:55.464Z,63.97
2018-02-15T03:03:55.460Z,63.69
2018-02-15T03:04:55.437Z,63.76
2018-02-15T03:05:55.460Z,63.84
2018-02-15T03:06:55.451Z,63.69
2018-02-15T03:07:55.456Z,63.71
2018-02-15T03:08:55.453Z,63.67
2018-02-15T03:09:55.475Z,63.87
2018-02-15T03:10:55.458Z,64.02
2018-02-15T03:11:55.439Z,63.97
2018-02-15T03:12:55.446Z,63.9
2018-02-15T03:13:55.452Z,63.7
2018-02-15T03:14:55.487Z,63.64
2018-02-15T03:15:55.469Z,63.44
2018-02-15T03:16:55.458Z,63.74
2018-02-15T03:17:56.372Z,63.91
2018-02-15T03:18:55.468Z,63.54
2018-02-15T03:19:55.480Z,63.57
2018-02-15T03:20:55.476Z,63.57
2018-02-15T03:21:55.468Z,63.59
2018-02-15T03:22:55.468Z,63.64
2018-02-15T03:23:55.609Z,63.71
2018-02-15T03:24:55.486Z,63.64
2018-02-15T03:25:55.482Z,63.72
2018-02-15T03:26:55.494Z,63.67
2018-02-15T03:27:55.509Z,63.47
2018-02-15T03:28:55.531Z,63.61
2018-02-15T03:29:55.534Z,63.56
2018-02-15T03:30:55.525Z,63.25
2018-02-15T03:31:55.530Z,63.41
2018-02-15T03:32:55.539Z,63.4
2018-02-15T03:33:55.571Z,63.47
2018-02-15T03:34:55.547Z,63.29
2018-02-15T03:35:55.554Z,63.36
2018-02-15T03:36:55.545Z,63.58
2018-02-15T03:37:55.568Z,63.26
2018-02-15T03:38:55.574Z,63.46
2018-02-15T03:39:55.580Z,63.42
2018-02-15T03:40:55.559Z,63.48
2018-02-15T03:41:55.549Z,63.38
2018-02-15T03:42:55.555Z,63.2
2018-02-15T03:43:55.554Z,62.99
2018-02-15T03:44:55.586Z,62.77
2018-02-15T03:45:55.594Z,62.94
2018-02-15T03:46:55.575Z,62.94
2018-02-15T03:47:55.560Z,62.66
2018-02-15T03:48:55.568Z,62.67
2018-02-15T03:49:55.644Z,62.97
2018-02-15T03:50:55.600Z,62.51
2018-02-15T03:51:55.595Z,62.68
2018-02-15T03:52:55.596Z,62.49
2018-02-15T03:53:55.600Z,62.36
2018-02-15T03:54:55.614Z,62.28
2018-02-15T03:55:55.622Z,62.67
2018-02-15T03:56:55.614Z,62.38
2018-02-15T03:57:55.601Z,62.4
2018-02-15T03:58:55.619Z,62.17
2018-02-15T03:59:55.643Z,62.23
2018-02-15T04:00:55.652Z,62.15
2018-02-15T04:01:55.632Z,62.11
2018-02-15T04:02:55.632Z,62.27
2018-02-15T04:03:55.639Z,61.73
2018-02-15T04:04:55.747Z,61.79
2018-02-15T04:05:55.632Z,62.02
2018-02-15T04:06:55.669Z,62.1
2018-02-15T04:07:55.648Z,61.8
2018-02-15T04:08:55.648Z,61.4
2018-02-15T04:09:55.658Z,61.5
2018-02-15T04:10:55.672Z,61.55
2018-02-15T04:11:55.664Z,61.85
2018-02-15T04:12:55.658Z,61.66
2018-02-15T04:13:55.704Z,61.51
2018-02-15T04:14:55.685Z,62.02
2018-02-15T04:15:55.697Z,61.82
2018-02-15T04:16:55.725Z,61.22
2018-02-15T04:17:55.670Z,61.22
2018-02-15T04:18:55.697Z,61.09
2018-02-15T04:19:55.685Z,61.1
2018-02-15T04:20:55.692Z,61.31
2018-02-15T04:21:55.680Z,61.5
2018-02-15T04:22:55.672Z,61.18
2018-02-15T04:23:55.676Z,61.19
2018-02-15T04:24:55.688Z,61.21
2018-02-15T04:25:56.037Z,61.31
2018-02-15T04:26:55.713Z,61.1
2018-02-15T04:27:55.690Z,61.48
2018-02-15T04:28:55.688Z,61.5
2018-02-15T04:29:55.694Z,61.21
2018-02-15T04:30:55.716Z,60.95
2018-02-15T04:31:56.386Z,61.1
2018-02-15T04:32:55.709Z,61.31
2018-02-15T04:33:58.748Z,61.15
2018-02-15T04:34:55.718Z,60.89
2018-02-15T04:35:55.704Z,61.2
2018-02-15T04:36:55.730Z,61.45
2018-02-15T04:37:55.747Z,61.2
2018-02-15T04:38:55.719Z,61.52
2018-02-15T04:39:55.729Z,60.92
2018-02-15T04:40:55.726Z,61.26
2018-02-15T04:41:55.738Z,61.14
2018-02-15T04:42:55.745Z,61.23
2018-02-15T04:43:55.755Z,61.21
2018-02-15T04:44:55.745Z,61.07
2018-02-15T04:45:55.745Z,61.06
2018-02-15T04:46:55.767Z,61.37
2018-02-15T04:47:55.763Z,61.24
2018-02-15T04:48:55.786Z,60.85
2018-02-15T04:49:55.792Z,60.29
2018-02-15T04:50:55.769Z,60.53
2018-02-15T04:51:55.777Z,60.45
2018-02-15T04:52:55.773Z,60.29
2018-02-15T04:53:55.769Z,60.4
2018-02-15T04:54:55.802Z,60.45
2018-02-15T04:55:55.781Z,60.45
2018-02-15T04:56:55.791Z,60.53
2018-02-15T04:57:55.791Z,59.96
2018-02-15T04:58:55.788Z,59.85
2018-02-15T04:59:55.812Z,59.87
2018-02-15T05:00:55.817Z,59.86
2018-02-15T05:01:55.805Z,60.15
2018-02-15T05:02:55.805Z,60.23
2018-02-15T05:03:55.801Z,60.11
2018-02-15T05:04:55.794Z,60.32
2018-02-15T05:05:55.825Z,59.71
2018-02-15T05:06:55.836Z,60
2018-02-15T05:07:55.809Z,59.91
2018-02-15T05:08:55.816Z,60.05
2018-02-15T05:09:55.825Z,59.94
2018-02-15T05:10:55.839Z,59.95
2018-02-15T05:11:55.815Z,59.58
2018-02-15T05:12:55.814Z,59.77
2018-02-15T05:13:55.826Z,59.71
2018-02-15T05:14:55.829Z,59.71
2018-02-15T05:15:55.844Z,59.89
2018-02-15T05:16:56.188Z,59.37
2018-02-15T05:17:55.860Z,59.54
2018-02-15T05:18:55.840Z,59.82
2018-02-15T05:19:55.851Z,59.92
2018-02-15T05:20:55.847Z,59.64
2018-02-15T05:21:55.881Z,59.74
2018-02-15T05:22:55.853Z,59.85
2018-02-15T05:23:55.846Z,59.92
2018-02-15T05:24:55.844Z,59.61
2018-02-15T05:25:56.034Z,59.49
2018-02-15T05:26:55.871Z,59.39
2018-02-15T05:27:55.838Z,59.39
2018-02-15T05:28:55.849Z,59.65
2018-02-15T05:29:55.848Z,59.76
2018-02-15T05:30:55.888Z,59.58
2018-02-15T05:31:55.897Z,59.49
2018-02-15T05:32:55.869Z,59.63
2018-02-15T05:33:55.876Z,59.76
2018-02-15T05:34:55.881Z,60.01
2018-02-15T05:35:55.883Z,59.87
2018-02-15T05:36:55.885Z,59.96
2018-02-15T05:37:55.926Z,59.74
2018-02-15T05:38:56.009Z,59.27
2018-02-15T05:39:55.893Z,59.22
2018-02-15T05:40:55.981Z,59.67
2018-02-15T05:41:55.907Z,59.76
2018-02-15T05:42:55.917Z,59.72
2018-02-15T05:43:55.919Z,59.38
2018-02-15T05:44:55.901Z,59.65
2018-02-15T05:45:55.904Z,59.21
2018-02-15T05:46:55.902Z,59.48
2018-02-15T05:47:55.897Z,59.85
2018-02-15T05:48:55.957Z,59.45
2018-02-15T05:49:55.908Z,59.75
2018-02-15T05:50:55.930Z,60.09
2018-02-15T05:51:55.907Z,60.15
2018-02-15T05:52:55.925Z,60.19
2018-02-15T05:53:56.185Z,59.7
2018-02-15T05:54:55.924Z,59.75
2018-02-15T05:55:55.919Z,59.51
2018-02-15T05:56:55.921Z,59.53
2018-02-15T05:57:55.935Z,59.67
2018-02-15T05:58:55.942Z,59.88
2018-02-15T05:59:56.015Z,60.18
2018-02-15T06:00:55.975Z,59.91
2018-02-15T06:01:55.984Z,59.42
2018-02-15T06:02:55.971Z,59.29
2018-02-15T06:03:55.999Z,59.53
2018-02-15T06:04:56.013Z,59.6
2018-02-15T06:05:56.040Z,59.54
2018-02-15T06:06:55.971Z,59.24
2018-02-15T06:07:55.958Z,58.96
2018-02-15T06:08:56.015Z,59.45
2018-02-15T06:09:55.969Z,59.76
2018-02-15T06:10:55.974Z,59.71
2018-02-15T06:11:56.012Z,59.72
2018-02-15T06:12:55.986Z,59.49
2018-02-15T06:13:56.015Z,59.29
2018-02-15T06:14:56.000Z,59.08
2018-02-15T06:15:56.004Z,59.19
2018-02-15T06:16:55.991Z,58.96
2018-02-15T06:17:55.990Z,58.74
2018-02-15T06:18:55.994Z,58.73
2018-02-15T06:19:55.984Z,58.81
2018-02-15T06:20:56.068Z,59.27
2018-02-15T06:21:56.013Z,58.98
2018-02-15T06:22:56.005Z,59.27
2018-02-15T06:23:56.021Z,59.01
2018-02-15T06:24:56.014Z,59.27
2018-02-15T06:25:56.041Z,59.4
2018-02-15T06:26:56.025Z,59.33
2018-02-15T06:27:56.036Z,59.36
2018-02-15T06:28:56.018Z,59.34
2018-02-15T06:29:56.023Z,59.43
2018-02-15T06:30:56.032Z,59.41
2018-02-15T06:31:56.034Z,59.56
2018-02-15T06:32:56.170Z,59.71
2018-02-15T06:33:56.049Z,60.26
2018-02-15T06:34:56.039Z,60.35
2018-02-15T06:35:56.046Z,60.25
2018-02-15T06:36:56.155Z,60.29
2018-02-15T06:37:56.109Z,59.66
2018-02-15T06:38:56.118Z,59.6
2018-02-15T06:39:56.049Z,60.03
2018-02-15T06:40:56.057Z,59.66
2018-02-15T06:41:56.083Z,59.75
2018-02-15T06:42:56.087Z,59.89
2018-02-15T06:43:56.105Z,59.82
2018-02-15T06:44:56.092Z,59.86
2018-02-15T06:45:56.080Z,59.38
2018-02-15T06:46:56.087Z,59.49
2018-02-15T06:47:56.092Z,59.31
2018-02-15T06:48:56.108Z,59.35
2018-02-15T06:49:56.104Z,59.49
2018-02-15T06:50:56.095Z,59.48
2018-02-15T06:51:56.099Z,59.63
2018-02-15T06:52:56.086Z,59.71
2018-02-15T06:53:56.079Z,59.54
2018-02-15T06:54:56.086Z,59.39
2018-02-15T06:55:56.110Z,59.66
2018-02-15T06:56:56.112Z,59.57
2018-02-15T06:57:56.083Z,59.6
2018-02-15T06:58:56.143Z,59.67
2018-02-15T06:59:56.103Z,59.58
2018-02-15T07:00:56.102Z,60.01
2018-02-15T07:01:56.118Z,59.83
2018-02-15T07:02:56.118Z,59.92
2018-02-15T07:03:56.173Z,60.18
2018-02-15T07:04:56.125Z,60.12
2018-02-15T07:05:56.164Z,59.75
2018-02-15T07:06:56.189Z,60.17
2018-02-15T07:07:56.129Z,59.75
2018-02-15T07:08:56.184Z,59.78
2018-02-15T07:09:56.906Z,59.64
2018-02-15T07:10:56.147Z,59.97
2018-02-15T07:11:56.337Z,60.15
2018-02-15T07:12:56.164Z,60.14
2018-02-15T07:13:56.168Z,60.23
2018-02-15T07:14:56.187Z,60.27
2018-02-15T07:15:56.160Z,60.34
2018-02-15T07:16:56.166Z,60.28
2018-02-15T07:17:56.200Z,60.13
2018-02-15T07:18:56.180Z,60.12
2018-02-15T07:19:56.457Z,60.47
2018-02-15T07:20:56.190Z,60.6
2018-02-15T07:21:56.193Z,60.24
2018-02-15T07:22:56.199Z,60.1
2018-02-15T07:23:56.210Z,60.31
2018-02-15T07:24:56.244Z,60.1
2018-02-15T07:25:56.214Z,60.58
2018-02-15T07:26:56.467Z,60.88
2018-02-15T07:27:56.206Z,60.71
2018-02-15T07:28:56.227Z,61.04
2018-02-15T07:29:56.221Z,60.67
2018-02-15T07:30:56.218Z,61.57
2018-02-15T07:31:56.243Z,61.84
2018-02-15T07:32:56.254Z,62.46
2018-02-15T07:33:56.268Z,62.94
2018-02-15T07:34:56.238Z,63.18
2018-02-15T07:35:56.246Z,64.68
2018-02-15T07:36:56.245Z,66.07
2018-02-15T07:37:56.271Z,66.7
2018-02-15T07:38:56.273Z,66.85
2018-02-15T07:39:56.329Z,67.95
2018-02-15T07:40:56.263Z,68.3
2018-02-15T07:41:56.273Z,68.75
2018-02-15T07:42:56.260Z,70.75
2018-02-15T07:43:56.283Z,71.45
2018-02-15T07:44:57.075Z,71.87
2018-02-15T07:45:56.305Z,72.51
2018-02-15T07:46:56.290Z,72.09
2018-02-15T07:47:56.297Z,73.15
2018-02-15T07:48:56.456Z,74.26
2018-02-15T07:49:56.337Z,74.87
2018-02-15T07:50:56.312Z,74.29
2018-02-15T07:51:56.280Z,76.35
2018-02-15T07:52:56.294Z,76.08
2018-02-15T07:53:56.311Z,77.03
2018-02-15T07:54:56.573Z,77.89
2018-02-15T07:55:56.299Z,78.06
2018-02-15T07:56:56.303Z,78.18
2018-02-15T07:57:56.308Z,79.13
2018-02-15T07:58:56.305Z,80.1
2018-02-15T07:59:56.323Z,80.42
2018-02-15T08:00:56.343Z,80.67
2018-02-15T08:01:56.395Z,80.9
2018-02-15T08:02:56.384Z,81.44
2018-02-15T08:03:56.320Z,81.12
2018-02-15T08:04:56.340Z,81.37
2018-02-15T08:05:56.346Z,80.79
2018-02-15T08:06:56.325Z,81.76
2018-02-15T08:07:56.319Z,81.7
2018-02-15T08:08:56.347Z,82.51
2018-02-15T08:09:56.340Z,82.92
2018-02-15T08:10:56.314Z,82.59
2018-02-15T08:11:56.347Z,83.04
2018-02-15T08:12:56.323Z,83.14
2018-02-15T08:13:56.336Z,82.89
2018-02-15T08:14:56.349Z,83.1
2018-02-15T08:15:56.345Z,83.18
2018-02-15T08:16:56.338Z,83.69
2018-02-15T08:17:56.339Z,82.65
2018-02-15T08:18:56.343Z,82.75
2018-02-15T08:19:56.368Z,82.06
2018-02-15T08:20:56.349Z,83.21
2018-02-15T08:21:56.360Z,82.89
2018-02-15T08:22:56.365Z,82.19
2018-02-15T08:23:56.351Z,82.8
2018-02-15T08:24:56.369Z,82.19
2018-02-15T08:25:56.368Z,83.11
2018-02-15T08:26:56.372Z,82.81
2018-02-15T08:27:56.372Z,83.05
2018-02-15T08:28:56.387Z,83.26
2018-02-15T08:29:56.385Z,83.07
2018-02-15T08:30:56.392Z,83.49
2018-02-15T08:31:56.407Z,82.62
2018-02-15T08:32:56.393Z,83.11
2018-02-15T08:33:56.405Z,83.08
2018-02-15T08:34:56.424Z,83.56
2018-02-15T08:35:56.410Z,83.25
2018-02-15T08:36:56.410Z,83.19
2018-02-15T08:37:56.422Z,83.34
2018-02-15T08:38:56.415Z,83.58
2018-02-15T08:39:56.435Z,83.41
2018-02-15T08:40:56.434Z,83.73
2018-02-15T08:41:56.427Z,83.2
2018-02-15T08:42:56.476Z,83.6
2018-02-15T08:43:56.436Z,83.73
2018-02-15T08:44:56.487Z,83.74
2018-02-15T08:45:56.442Z,83.43
2018-02-15T08:46:56.427Z,83.72
2018-02-15T08:47:56.442Z,83.39
2018-02-15T08:48:56.454Z,83.66
2018-02-15T08:49:56.525Z,83.75
2018-02-15T08:50:56.451Z,83.86
2018-02-15T08:51:56.458Z,83.74
2018-02-15T08:52:56.440Z,83.64
2018-02-15T08:53:56.448Z,83.86
2018-02-15T08:54:25.698Z,84.2
2018-02-15T08:55:25.741Z,83.85
2018-02-15T08:56:25.711Z,83.69
2018-02-15T08:57:25.714Z,83.86
2018-02-15T08:58:25.709Z,84.23
2018-02-15T08:59:25.720Z,83.6
2018-02-15T09:00:25.743Z,84
2018-02-15T09:01:25.709Z,83.68
2018-02-15T09:02:25.734Z,83.55
2018-02-15T09:03:25.720Z,84
2018-02-15T09:04:25.773Z,84.49
2018-02-15T09:05:25.736Z,84.44
2018-02-15T09:06:25.734Z,84.48
2018-02-15T09:07:25.749Z,84.34
2018-02-15T09:08:25.730Z,84.48
2018-02-15T09:09:25.738Z,83.77
2018-02-15T09:10:25.794Z,84.91
2018-02-15T09:11:25.745Z,85.02
2018-02-15T09:12:25.757Z,84.69
2018-02-15T09:13:25.759Z,84.98
2018-02-15T09:14:25.782Z,84.97
2018-02-15T09:15:25.772Z,85.08
2018-02-15T09:16:25.771Z,84.78
2018-02-15T09:17:25.808Z,85.46
2018-02-15T09:18:25.773Z,85.27
2018-02-15T09:19:25.777Z,85.56
2018-02-15T09:20:25.775Z,85.16
2018-02-15T09:21:25.784Z,85.1
2018-02-15T09:22:25.954Z,85.45
2018-02-15T09:23:25.809Z,85.77
2018-02-15T09:24:25.789Z,85.75
2018-02-15T09:25:25.792Z,86.04
2018-02-15T09:26:25.803Z,86.18
2018-02-15T09:27:25.836Z,86.09
2018-02-15T09:28:25.818Z,85.76
2018-02-15T09:29:25.800Z,86.05
2018-02-15T09:30:25.837Z,86.01
2018-02-15T09:31:25.803Z,85.95
2018-02-15T09:32:25.949Z,85.26
2018-02-15T09:33:25.813Z,85.96
2018-02-15T09:34:25.822Z,85.51
2018-02-15T09:35:25.810Z,85.89
2018-02-15T09:36:25.821Z,85.9
2018-02-15T09:37:25.841Z,86.4
2018-02-15T09:38:25.845Z,86.73
2018-02-15T09:39:25.871Z,86.31
2018-02-15T09:40:25.822Z,86.38
2018-02-15T09:41:25.829Z,86.02
2018-02-15T09:42:25.851Z,86.33
2018-02-15T09:43:25.834Z,86.31
2018-02-15T09:44:25.839Z,86.83
2018-02-15T09:45:25.829Z,86.77
2018-02-15T09:46:25.827Z,86.51
2018-02-15T09:47:25.948Z,86.92
2018-02-15T09:48:25.836Z,86.72
2018-02-15T09:49:25.879Z,86.38
2018-02-15T09:50:25.853Z,86.67
2018-02-15T09:51:25.866Z,86.48
2018-02-15T09:52:25.969Z,86.97
2018-02-15T09:53:25.849Z,86.64
2018-02-15T09:54:25.986Z,86.8
2018-02-15T09:55:25.844Z,86.88
2018-02-15T09:56:25.865Z,86.74
2018-02-15T09:57:25.854Z,86.88
2018-02-15T09:58:25.868Z,87.13
2018-02-15T09:59:25.863Z,86.8
2018-02-15T10:00:25.850Z,86.7
2018-02-15T10:01:25.879Z,87.39
2018-02-15T10:02:25.868Z,86.84
2018-02-15T10:03:25.864Z,87.09
2018-02-15T10:04:25.890Z,87.21
2018-02-15T10:05:25.870Z,87.41
2018-02-15T10:06:25.892Z,86.98
2018-02-15T10:07:25.900Z,86.75
2018-02-15T10:08:25.904Z,87.08
2018-02-15T10:09:25.879Z,87.05
2018-02-15T10:10:26.021Z,87.05
2018-02-15T10:11:25.883Z,87.25
2018-02-15T10:12:25.897Z,86.85
2018-02-15T10:13:25.926Z,86.89
2018-02-15T10:14:25.886Z,87.1
2018-02-15T10:15:25.891Z,87.13
2018-02-15T10:16:25.934Z,87.63
2018-02-15T10:17:25.907Z,87.73
2018-02-15T10:18:25.914Z,88.95
2018-02-15T10:19:25.908Z,87.68
2018-02-15T10:20:25.907Z,87.59
2018-02-15T10:21:25.925Z,88.47
2018-02-15T10:22:25.923Z,89.05
2018-02-15T10:23:25.903Z,88.68
2018-02-15T10:24:25.936Z,88.2
2018-02-15T10:25:25.926Z,87.94
2018-02-15T10:26:25.923Z,88.74
2018-02-15T10:27:25.930Z,88.39
2018-02-15T10:28:25.918Z,88.1
2018-02-15T10:29:25.966Z,88.74
2018-02-15T10:30:25.934Z,88.42
2018-02-15T10:31:25.936Z,89.66
2018-02-15T10:32:25.944Z,89.35
2018-02-15T10:33:25.956Z,89.93
2018-02-15T10:34:25.973Z,88.58
2018-02-15T10:35:25.956Z,88.25
2018-02-15T10:36:25.960Z,88.87
2018-02-15T10:37:25.952Z,88.92
2018-02-15T10:38:25.949Z,89.12
2018-02-15T10:39:25.975Z,88.22
2018-02-15T10:40:25.975Z,88.13
2018-02-15T10:41:25.992Z,88.02
2018-02-15T10:42:25.970Z,88.06
2018-02-15T10:43:25.985Z,89.98
2018-02-15T10:44:26.003Z,88.45
2018-02-15T10:45:25.986Z,88.87
2018-02-15T10:46:25.994Z,88.21
2018-02-15T10:47:25.990Z,87.91
2018-02-15T10:48:25.984Z,88.51
2018-02-15T10:49:26.052Z,88.11
2018-02-15T10:50:25.995Z,87.79
2018-02-15T10:51:26.056Z,88.06
2018-02-15T10:52:25.999Z,88.52
2018-02-15T10:53:26.012Z,89.64
2018-02-15T10:54:26.057Z,89.07
2018-02-15T10:55:26.013Z,88.2
2018-02-15T10:56:26.128Z,88.76
2018-02-15T10:57:26.018Z,88.72
2018-02-15T10:58:26.015Z,89
2018-02-15T10:59:26.048Z,88.43
2018-02-15T11:00:26.015Z,88.37
2018-02-15T11:01:26.098Z,89.19
2018-02-15T11:02:26.022Z,89.39
2018-02-15T11:03:26.032Z,88.87
2018-02-15T11:04:26.058Z,88.93
2018-02-15T11:05:26.037Z,89.05
2018-02-15T11:06:26.038Z,89.74
2018-02-15T11:07:26.035Z,89.57
2018-02-15T11:08:26.057Z,89.19
2018-02-15T11:09:26.069Z,88.94
2018-02-15T11:10:26.051Z,89.61
2018-02-15T11:11:26.059Z,90.23
2018-02-15T11:12:26.045Z,89.85
2018-02-15T11:13:26.053Z,90.08
2018-02-15T11:14:26.079Z,90.03
2018-02-15T11:15:26.060Z,89.61
2018-02-15T11:16:26.067Z,90.24
2018-02-15T11:17:26.078Z,89.3
2018-02-15T11:18:26.082Z,89.57
2018-02-15T11:19:26.076Z,89.72
2018-02-15T11:20:26.082Z,89.6
2018-02-15T11:21:26.090Z,89.69
2018-02-15T11:22:26.936Z,89.44
2018-02-15T11:23:26.968Z,90.29
2018-02-15T11:24:26.359Z,89.76
2018-02-15T11:25:26.096Z,90.56
2018-02-15T11:26:26.979Z,89.65
2018-02-15T11:27:26.110Z,89.43
2018-02-15T11:28:27.863Z,89.91
2018-02-15T11:29:26.654Z,89.67
2018-02-15T11:30:26.115Z,89.67
2018-02-15T11:31:27.000Z,89.57
2018-02-15T11:32:26.126Z,89.36
2018-02-15T11:33:26.158Z,89.77
2018-02-15T11:34:26.137Z,89.85
2018-02-15T11:35:26.140Z,89.91
2018-02-15T11:36:26.145Z,89.57
2018-02-15T11:37:27.183Z,89.48
2018-02-15T11:38:26.177Z,89.01
2018-02-15T11:39:26.156Z,89.2
2018-02-15T11:40:28.216Z,89.67
2018-02-15T11:41:26.156Z,90.04
2018-02-15T11:42:26.161Z,89.94
2018-02-15T11:43:28.109Z,89.89
2018-02-15T11:44:26.158Z,89.95
2018-02-15T11:45:26.171Z,90.43
2018-02-15T11:46:26.178Z,90.39
2018-02-15T11:47:26.179Z,90.17
2018-02-15T11:48:26.176Z,90.16
2018-02-15T11:49:26.181Z,90.2
2018-02-15T11:50:26.186Z,90.05
2018-02-15T11:51:26.189Z,90.6
2018-02-15T11:52:26.176Z,90.52
2018-02-15T11:53:26.223Z,90.31
2018-02-15T11:54:26.197Z,90.75
2018-02-15T11:55:26.207Z,90.35
2018-02-15T11:56:26.276Z,90.01
2018-02-15T11:57:26.209Z,90.78
2018-02-15T11:58:26.212Z,90.88
2018-02-15T11:59:26.224Z,91.04
2018-02-15T12:00:26.240Z,91.22
2018-02-15T12:01:26.214Z,91.33
2018-02-15T12:02:26.253Z,91.27
2018-02-15T12:03:26.226Z,90.52
2018-02-15T12:04:26.235Z,90.87
2018-02-15T12:05:26.259Z,91.02
2018-02-15T12:06:26.221Z,90.86
2018-02-15T12:07:26.239Z,90.82
2018-02-15T12:08:26.236Z,90.9
2018-02-15T12:09:26.245Z,90.64
2018-02-15T12:10:26.255Z,90.96
2018-02-15T12:11:26.250Z,90.99
2018-02-15T12:12:26.263Z,90.83
2018-02-15T12:13:26.272Z,91.07
2018-02-15T12:14:26.251Z,90.74
2018-02-15T12:15:26.258Z,90.73
2018-02-15T12:16:26.262Z,90.94
2018-02-15T12:17:26.269Z,91.03
2018-02-15T12:18:26.538Z,91.17
2018-02-15T12:19:26.407Z,91.16
2018-02-15T12:20:26.417Z,90.88
2018-02-15T12:21:26.281Z,90.7
2018-02-15T12:22:26.300Z,90.53
2018-02-15T12:23:26.449Z,90.58
2018-02-15T12:24:26.322Z,91.04
2018-02-15T12:25:26.326Z,90.95
2018-02-15T12:26:26.399Z,91
2018-02-15T12:27:26.336Z,90.79
2018-02-15T12:28:26.347Z,91.02
2018-02-15T12:29:26.354Z,91.23
2018-02-15T12:30:26.360Z,91.27
2018-02-15T12:31:26.348Z,91.65
2018-02-15T12:32:26.399Z,91.23
2018-02-15T12:33:26.365Z,91.17
2018-02-15T12:34:26.406Z,91.29
2018-02-15T12:35:26.394Z,91.55
2018-02-15T12:36:26.326Z,92.33
2018-02-15T12:37:26.388Z,91.86
2018-02-15T12:38:26.340Z,91.76
2018-02-15T12:39:26.419Z,92.07
2018-02-15T12:40:26.433Z,91.51
2018-02-15T12:41:26.435Z,91.15
2018-02-15T12:42:26.651Z,91.61
2018-02-15T12:43:26.505Z,91.72
2018-02-15T12:44:26.455Z,91.26
2018-02-15T12:45:26.462Z,91.74
2018-02-15T12:46:26.459Z,91.48
2018-02-15T12:47:26.479Z,90.95
2018-02-15T12:48:26.480Z,91.83
2018-02-15T12:49:26.388Z,91.01
2018-02-15T12:50:26.393Z,91.4
2018-02-15T12:51:26.403Z,91.8
2018-02-15T12:52:26.389Z,92.26
2018-02-15T12:53:26.397Z,91.79
2018-02-15T12:54:26.568Z,91.42
2018-02-15T12:55:26.378Z,91.63